createdAt,value
2019-05-29T00:01:17.729Z,26.00
2019-05-29T00:03:45.583Z,26.10
2019-05-29T00:06:17.067Z,26.10
2019-05-29T00:08:48.489Z,26.10
2019-05-29T00:11:20.012Z,26.10
2019-05-29T00:13:51.570Z,26.10
2019-05-29T00:16:23.020Z,26.10
2019-05-29T00:18:57.610Z,26.10
2019-05-29T00:21:27.434Z,26.10
2019-05-29T00:23:58.985Z,26.10
2019-05-29T00:26:30.406Z,26.10
2019-05-29T00:29:01.746Z,26.10
2019-05-29T00:31:33.261Z,26.20
2019-05-29T00:34:06.864Z,26.20
2019-05-29T00:36:38.504Z,26.20
2019-05-29T00:39:10.639Z,26.20
2019-05-29T00:41:41.979Z,26.20
2019-05-29T00:44:13.478Z,26.20
2019-05-29T00:46:44.917Z,26.20
2019-05-29T00:49:16.450Z,26.20
2019-05-29T00:51:48.014Z,26.30
2019-05-29T00:54:19.526Z,26.30
2019-05-29T00:56:51.158Z,26.30
2019-05-29T00:59:22.839Z,26.40
2019-05-29T01:01:54.305Z,26.40
2019-05-29T01:04:25.907Z,26.40
2019-05-29T01:06:58.864Z,26.40
2019-05-29T01:09:30.377Z,26.40
2019-05-29T01:12:01.955Z,26.50
2019-05-29T01:14:47.136Z,26.50
2019-05-29T01:17:06.376Z,26.60
2019-05-29T01:19:37.823Z,26.60
2019-05-29T01:22:09.166Z,26.70
2019-05-29T01:24:40.628Z,26.70
2019-05-29T01:27:12.602Z,26.70
2019-05-29T01:29:44.089Z,26.70
2019-05-29T01:32:15.522Z,26.80
2019-05-29T01:34:46.846Z,26.80
2019-05-29T01:37:18.414Z,26.80
2019-05-29T01:39:49.971Z,26.90
2019-05-29T01:42:21.508Z,26.90
2019-05-29T01:45:06.638Z,26.90
2019-05-29T01:47:25.990Z,26.90
2019-05-29T01:49:57.408Z,26.90
2019-05-29T01:52:28.739Z,27.00
2019-05-29T01:55:00.224Z,27.00
2019-05-29T01:57:31.736Z,27.10
2019-05-29T02:00:05.843Z,27.10
2019-05-29T02:02:37.328Z,27.20
2019-05-29T02:05:11.903Z,27.30
2019-05-29T02:07:43.396Z,27.30
2019-05-29T02:10:15.907Z,27.30
2019-05-29T02:12:47.684Z,27.30
2019-05-29T02:15:30.195Z,27.40
2019-05-29T02:18:09.234Z,27.40
2019-05-29T02:23:45.822Z,27.50
2019-05-29T02:26:18.760Z,27.60
2019-05-29T02:28:50.089Z,27.70
2019-05-29T02:32:03.356Z,27.70
2019-05-29T02:34:11.799Z,27.80
2019-05-29T02:36:42.912Z,27.80
2019-05-29T02:39:14.222Z,27.90
2019-05-29T02:41:45.748Z,28.00
2019-05-29T02:44:19.012Z,28.10
2019-05-29T02:46:52.977Z,28.10
2019-05-29T02:49:25.588Z,28.20
2019-05-29T02:51:57.225Z,28.30
2019-05-29T02:54:30.072Z,28.40
2019-05-29T02:57:02.313Z,28.60
2019-05-29T02:59:36.633Z,28.70
2019-05-29T03:02:11.422Z,28.80
2019-05-29T03:04:43.267Z,28.90
2019-05-29T03:07:14.833Z,29.00
2019-05-29T03:09:46.365Z,29.00
2019-05-29T03:12:17.949Z,29.00
2019-05-29T03:14:49.413Z,29.10
2019-05-29T03:17:20.847Z,29.20
2019-05-29T03:19:52.810Z,29.30
2019-05-29T03:22:24.316Z,29.40
2019-05-29T03:24:55.832Z,29.50
2019-05-29T03:27:33.853Z,29.50
2019-05-29T03:30:06.683Z,29.50
2019-05-29T03:32:46.283Z,29.40
2019-05-29T03:35:12.422Z,29.40
2019-05-29T03:37:44.233Z,29.40
2019-05-29T03:40:16.215Z,29.60
2019-05-29T03:42:47.529Z,29.70
2019-05-29T03:45:24.111Z,29.80
2019-05-29T03:47:58.563Z,29.80
2019-05-29T03:50:31.176Z,29.80
2019-05-29T03:53:02.553Z,29.80
2019-05-29T03:55:37.953Z,29.80
2019-05-29T03:58:09.967Z,29.90
2019-05-29T04:00:45.951Z,29.90
2019-05-29T04:03:14.078Z,29.90
2019-05-29T04:05:45.551Z,29.80
2019-05-29T04:08:18.022Z,29.80
2019-05-29T04:10:49.576Z,29.80
2019-05-29T04:13:20.871Z,30.00
2019-05-29T04:15:52.519Z,30.20
2019-05-29T04:18:29.589Z,30.30
2019-05-29T04:21:02.499Z,30.30
2019-05-29T04:23:36.438Z,30.20
2019-05-29T04:26:13.054Z,30.10
2019-05-29T04:28:44.813Z,30.00
2019-05-29T04:31:16.352Z,30.00
2019-05-29T04:33:47.626Z,29.90
2019-05-29T04:36:21.937Z,29.90
2019-05-29T04:38:52.787Z,29.90
2019-05-29T04:41:24.129Z,29.90
2019-05-29T04:43:57.195Z,29.90
2019-05-29T04:46:30.009Z,30.00
2019-05-29T04:49:01.951Z,30.20
2019-05-29T04:51:33.381Z,30.30
2019-05-29T04:54:05.449Z,30.40
2019-05-29T04:56:37.014Z,30.40
2019-05-29T04:59:10.348Z,30.60
2019-05-29T05:01:41.333Z,30.70
2019-05-29T05:04:13.897Z,30.90
2019-05-29T05:06:45.141Z,31.00
2019-05-29T05:09:19.446Z,31.00
2019-05-29T05:11:50.713Z,31.10
2019-05-29T05:14:22.040Z,31.10
2019-05-29T05:16:53.543Z,31.00
2019-05-29T05:19:25.158Z,31.00
2019-05-29T05:21:56.755Z,30.90
2019-05-29T05:24:28.395Z,30.80
2019-05-29T05:26:59.848Z,30.80
2019-05-29T05:29:32.110Z,30.90
2019-05-29T05:32:03.453Z,31.00
2019-05-29T05:34:35.015Z,31.10
2019-05-29T05:37:06.404Z,31.30
2019-05-29T05:39:38.963Z,31.40
2019-05-29T05:42:10.549Z,31.50
2019-05-29T05:44:42.179Z,31.60
2019-05-29T05:47:13.508Z,31.50
2019-05-29T05:49:44.820Z,31.40
2019-05-29T05:52:16.242Z,31.30
2019-05-29T05:54:50.820Z,31.20
2019-05-29T05:57:22.408Z,31.10
2019-05-29T05:59:57.369Z,31.10
2019-05-29T06:02:31.756Z,31.20
2019-05-29T06:05:02.960Z,31.30
2019-05-29T06:07:38.124Z,31.30
2019-05-29T06:10:10.645Z,31.30
2019-05-29T06:12:44.921Z,31.30
2019-05-29T06:15:16.499Z,31.30
2019-05-29T06:18:10.153Z,31.30
2019-05-29T06:20:20.667Z,31.30
2019-05-29T06:22:52.258Z,31.30
2019-05-29T06:25:24.259Z,31.40
2019-05-29T06:27:55.654Z,31.40
2019-05-29T06:30:29.073Z,31.40
2019-05-29T06:33:01.262Z,31.40
2019-05-29T06:35:35.890Z,31.40
2019-05-29T06:38:07.367Z,31.40
2019-05-29T06:40:41.958Z,31.50
2019-05-29T06:43:15.706Z,31.50
2019-05-29T06:45:47.248Z,31.40
2019-05-29T06:48:30.706Z,31.40
2019-05-29T06:50:57.105Z,31.40
2019-05-29T06:53:30.667Z,31.50
2019-05-29T06:56:02.764Z,31.50
2019-05-29T06:58:35.806Z,31.40
2019-05-29T07:01:08.385Z,31.40
2019-05-29T07:03:39.801Z,31.40
2019-05-29T07:06:11.255Z,31.30
2019-05-29T07:08:46.512Z,31.30
2019-05-29T07:11:15.616Z,31.30
2019-05-29T07:13:50.322Z,31.30
2019-05-29T07:16:20.939Z,31.20
2019-05-29T07:19:23.955Z,31.20
2019-05-29T07:21:25.344Z,31.20
2019-05-29T07:23:57.824Z,31.20
2019-05-29T07:26:47.603Z,31.10
2019-05-29T07:29:21.782Z,31.10
2019-05-29T07:31:53.302Z,31.10
2019-05-29T07:34:24.711Z,31.10
2019-05-29T07:36:59.313Z,31.20
2019-05-29T07:39:43.367Z,31.30
2019-05-29T07:42:15.254Z,31.40
2019-05-29T07:44:49.696Z,31.50
2019-05-29T07:47:21.284Z,31.60
2019-05-29T07:49:52.807Z,31.50
2019-05-29T07:52:25.947Z,31.50
2019-05-29T07:55:00.899Z,31.60
2019-05-29T07:57:32.246Z,31.60
2019-05-29T08:00:09.236Z,31.60
2019-05-29T08:02:41.344Z,31.70
2019-05-29T08:05:13.322Z,31.80
2019-05-29T08:07:45.919Z,31.90
2019-05-29T08:10:18.794Z,31.90
2019-05-29T08:12:55.362Z,31.80
2019-05-29T08:15:25.859Z,31.80
2019-05-29T08:18:10.710Z,31.70
2019-05-29T08:20:45.807Z,31.70
2019-05-29T08:23:19.392Z,31.60
2019-05-29T08:25:51.884Z,31.60
2019-05-29T08:28:27.153Z,31.60
2019-05-29T08:30:58.676Z,31.50
2019-05-29T08:33:30.170Z,31.50
2019-05-29T08:36:01.586Z,31.50
2019-05-29T08:38:34.060Z,31.40
2019-05-29T08:41:08.442Z,31.40
2019-05-29T08:43:40.371Z,31.40
2019-05-29T08:46:11.813Z,31.40
2019-05-29T08:48:43.704Z,31.40
2019-05-29T08:51:20.120Z,31.40
2019-05-29T08:53:55.356Z,31.40
2019-05-29T08:56:26.741Z,31.40
2019-05-29T08:59:03.176Z,31.40
2019-05-29T09:01:34.840Z,31.40
2019-05-29T09:04:06.348Z,31.40
2019-05-29T09:06:44.715Z,31.40
2019-05-29T09:09:16.359Z,31.40
2019-05-29T09:11:47.949Z,31.40
2019-05-29T09:14:22.296Z,31.40
2019-05-29T09:16:54.928Z,31.40
2019-05-29T09:19:26.699Z,31.40
2019-05-29T09:21:59.395Z,31.40
2019-05-29T09:24:31.779Z,31.40
2019-05-29T09:29:59.569Z,31.40
2019-05-29T09:32:48.426Z,31.50
2019-05-29T09:35:03.915Z,31.50
2019-05-29T09:37:39.090Z,31.50
2019-05-29T09:40:38.209Z,31.50
2019-05-29T09:42:57.977Z,31.60
2019-05-29T09:45:30.169Z,31.60
2019-05-29T09:48:04.316Z,31.60
2019-05-29T09:50:49.480Z,31.70
2019-05-29T09:53:08.786Z,31.70
2019-05-29T09:55:40.190Z,31.70
2019-05-29T09:58:11.691Z,31.70
2019-05-29T10:00:42.925Z,31.70
2019-05-29T10:03:14.379Z,31.70
2019-05-29T10:05:46.074Z,31.70
2019-05-29T10:08:19.914Z,31.70
2019-05-29T10:10:51.708Z,31.60
2019-05-29T10:13:23.461Z,31.70
2019-05-29T10:15:58.969Z,31.60
2019-05-29T10:18:33.912Z,31.70
2019-05-29T10:21:08.224Z,31.70
2019-05-29T10:23:39.551Z,31.60
2019-05-29T10:26:11.581Z,31.70
2019-05-29T10:28:55.384Z,31.60
2019-05-29T10:31:16.778Z,31.70
2019-05-29T10:33:50.236Z,31.60
2019-05-29T10:36:25.982Z,31.70
2019-05-29T10:38:57.545Z,31.60
2019-05-29T10:41:28.968Z,31.70
2019-05-29T10:44:03.449Z,31.70
2019-05-29T10:46:35.121Z,31.60
2019-05-29T10:49:09.984Z,31.60
2019-05-29T10:52:04.185Z,31.60
2019-05-29T10:54:17.048Z,31.60
2019-05-29T10:56:48.807Z,31.60
2019-05-29T10:59:20.372Z,31.60
2019-05-29T11:01:53.787Z,31.60
2019-05-29T11:04:25.560Z,31.60
2019-05-29T11:06:57.097Z,31.60
2019-05-29T11:09:46.416Z,31.50
2019-05-29T11:12:04.570Z,31.40
2019-05-29T11:14:36.863Z,31.40
2019-05-29T11:17:08.244Z,31.30
2019-05-29T11:19:39.773Z,31.30
2019-05-29T11:22:25.925Z,31.30
2019-05-29T11:24:50.058Z,31.20
2019-05-29T11:27:25.828Z,31.10
2019-05-29T11:29:57.089Z,31.10
2019-05-29T11:32:28.660Z,31.00
2019-05-29T11:35:02.061Z,30.90
2019-05-29T11:37:34.017Z,30.80
2019-05-29T11:40:08.547Z,30.70
2019-05-29T11:42:40.115Z,30.70
2019-05-29T11:45:13.600Z,30.70
2019-05-29T11:47:44.938Z,30.60
2019-05-29T11:50:19.973Z,30.50
2019-05-29T11:52:50.345Z,30.50
2019-05-29T11:55:22.007Z,30.50
2019-05-29T11:57:54.275Z,30.40
2019-05-29T12:00:25.929Z,30.40
2019-05-29T12:03:01.608Z,30.40
2019-05-29T12:05:33.242Z,30.30
2019-05-29T12:08:06.680Z,30.30
2019-05-29T12:10:38.325Z,30.20
2019-05-29T12:13:09.911Z,30.10
2019-05-29T12:15:41.510Z,30.00
2019-05-29T12:18:23.573Z,29.90
2019-05-29T12:20:45.784Z,29.60
2019-05-29T12:23:26.982Z,29.40
2019-05-29T12:26:16.652Z,29.20
2019-05-29T12:28:33.346Z,29.10
2019-05-29T12:31:04.725Z,28.90
2019-05-29T12:33:36.194Z,28.80
2019-05-29T12:36:08.117Z,28.80
2019-05-29T12:38:39.763Z,28.70
2019-05-29T12:47:11.267Z,28.60
2019-05-29T13:01:42.811Z,28.50
2019-05-29T13:04:18.460Z,28.50
2019-05-29T13:06:49.946Z,28.50
2019-05-29T13:09:22.862Z,28.50
2019-05-29T13:11:54.685Z,28.40
2019-05-29T13:14:32.335Z,28.40
2019-05-29T13:17:05.044Z,28.30
2019-05-29T13:19:37.500Z,28.30
2019-05-29T13:22:09.484Z,28.30
2019-05-29T13:24:42.171Z,28.20
2019-05-29T13:27:14.035Z,28.10
2019-05-29T13:29:45.650Z,28.10
2019-05-29T13:32:17.149Z,28.10
2019-05-29T13:34:53.545Z,28.10
2019-05-29T13:37:28.105Z,28.10
2019-05-29T13:40:06.471Z,28.10
2019-05-29T13:42:35.360Z,28.20
2019-05-29T13:45:17.741Z,28.10
2019-05-29T13:47:41.185Z,28.10
2019-05-29T13:50:14.936Z,28.00
2019-05-29T13:52:46.593Z,28.00
2019-05-29T13:55:18.488Z,27.90
2019-05-29T13:57:49.975Z,27.90
2019-05-29T14:00:33.779Z,27.80
2019-05-29T14:02:54.952Z,27.80
2019-05-29T14:05:27.215Z,27.80
2019-05-29T14:08:07.012Z,27.80
2019-05-29T14:10:36.805Z,27.80
2019-05-29T14:13:09.356Z,27.80
2019-05-29T14:15:41.123Z,27.80
2019-05-29T14:18:13.959Z,27.80
2019-05-29T14:20:48.752Z,27.80
2019-05-29T14:23:20.433Z,27.80
2019-05-29T14:25:51.914Z,27.80
2019-05-29T14:28:26.827Z,27.80
2019-05-29T14:31:01.704Z,27.80
2019-05-29T14:33:33.357Z,27.70
2019-05-29T14:36:09.263Z,27.70
2019-05-29T14:38:42.171Z,27.70
2019-05-29T14:41:13.760Z,27.60
2019-05-29T14:43:48.208Z,27.60
2019-05-29T14:46:19.986Z,27.60
2019-05-29T14:48:51.522Z,27.60
2019-05-29T14:51:23.164Z,27.60
2019-05-29T14:53:54.901Z,27.60
2019-05-29T14:56:27.506Z,27.60
2019-05-29T14:58:59.322Z,27.60
2019-05-29T15:01:31.380Z,27.60
2019-05-29T15:04:03.610Z,27.60
2019-05-29T15:06:37.648Z,27.60
2019-05-29T15:09:09.797Z,27.60
2019-05-29T15:11:49.247Z,27.60
2019-05-29T15:14:21.560Z,27.60
2019-05-29T15:16:53.259Z,27.60
2019-05-29T15:19:30.500Z,27.60
2019-05-29T15:22:02.788Z,27.50
2019-05-29T15:24:35.473Z,27.50
2019-05-29T15:27:12.011Z,27.50
2019-05-29T15:29:42.939Z,27.40
2019-05-29T15:32:14.615Z,27.40
2019-05-29T15:34:46.260Z,27.30
2019-05-29T15:37:19.505Z,27.20
2019-05-29T15:39:53.554Z,27.20
2019-05-29T15:42:29.096Z,27.20
2019-05-29T15:45:00.692Z,27.20
2019-05-29T15:47:31.979Z,27.10
2019-05-29T15:50:03.427Z,27.10
2019-05-29T15:52:34.813Z,27.10
2019-05-29T15:55:23.555Z,27.10
2019-05-29T15:57:42.397Z,27.10
2019-05-29T16:00:17.573Z,27.00
2019-05-29T16:02:51.559Z,27.00
2019-05-29T16:05:23.493Z,26.90
2019-05-29T16:07:57.616Z,26.80
2019-05-29T16:10:39.549Z,26.80
2019-05-29T16:13:18.960Z,26.70
2019-05-29T16:16:00.006Z,26.70
2019-05-29T16:18:33.606Z,26.70
2019-05-29T16:21:06.966Z,26.70
2019-05-29T16:23:38.099Z,26.60
2019-05-29T16:26:13.989Z,26.70
2019-05-29T16:28:46.720Z,26.60
2019-05-29T16:31:23.035Z,26.60
2019-05-29T16:33:56.773Z,26.60
2019-05-29T16:36:31.294Z,26.60
2019-05-29T16:39:08.076Z,26.60
2019-05-29T16:41:38.808Z,26.50
2019-05-29T16:44:11.908Z,26.50
2019-05-29T16:46:43.162Z,26.50
2019-05-29T16:49:18.707Z,26.50
2019-05-29T16:51:48.466Z,26.50
2019-05-29T16:54:25.384Z,26.40
2019-05-29T16:56:55.783Z,26.40
2019-05-29T16:59:30.725Z,26.40
2019-05-29T17:02:02.647Z,26.40
2019-05-29T17:04:34.132Z,26.40
2019-05-29T17:07:05.533Z,26.50
2019-05-29T17:09:37.096Z,26.40
2019-05-29T17:12:08.613Z,26.40
2019-05-29T17:14:40.311Z,26.40
2019-05-29T17:17:11.722Z,26.40
2019-05-29T17:19:44.293Z,26.50
2019-05-29T17:22:16.559Z,26.40
2019-05-29T17:24:48.321Z,26.50
2019-05-29T17:27:21.009Z,26.40
2019-05-29T17:29:52.677Z,26.50
2019-05-29T17:32:25.180Z,26.50
2019-05-29T17:34:56.961Z,26.40
2019-05-29T17:37:28.431Z,26.40
2019-05-29T17:39:59.876Z,26.40
2019-05-29T17:42:34.384Z,26.40
2019-05-29T17:45:06.794Z,26.40
2019-05-29T17:47:38.109Z,26.40
2019-05-29T17:50:10.384Z,26.40
2019-05-29T17:52:42.003Z,26.30
2019-05-29T17:55:14.037Z,26.30
2019-05-29T17:57:45.808Z,26.30
2019-05-29T18:00:38.074Z,26.30
2019-05-29T18:03:09.749Z,26.30
2019-05-29T18:05:41.366Z,26.30
2019-05-29T18:08:12.903Z,26.30
2019-05-29T18:10:44.780Z,26.30
2019-05-29T18:13:16.983Z,26.30
2019-05-29T18:15:48.455Z,26.20
2019-05-29T18:18:20.049Z,26.20
2019-05-29T18:20:51.615Z,26.20
2019-05-29T18:23:26.247Z,26.20
2019-05-29T18:26:03.719Z,26.20
2019-05-29T18:28:35.464Z,26.20
2019-05-29T18:31:07.104Z,26.20
2019-05-29T18:33:38.492Z,26.10
2019-05-29T18:36:09.953Z,26.20
2019-05-29T18:38:43.588Z,26.10
2019-05-29T18:41:14.230Z,26.10
2019-05-29T18:43:45.781Z,26.20
2019-05-29T18:46:17.280Z,26.20
2019-05-29T18:48:48.777Z,26.20
2019-05-29T18:51:20.501Z,26.20
2019-05-29T18:53:52.031Z,26.20
2019-05-29T18:56:24.012Z,26.20
2019-05-29T18:58:55.594Z,26.20
2019-05-29T19:01:27.580Z,26.20
2019-05-29T19:03:59.110Z,26.20
2019-05-29T19:06:31.779Z,26.10
2019-05-29T19:09:03.394Z,26.20
2019-05-29T19:11:34.880Z,26.20
2019-05-29T19:14:07.627Z,26.20
2019-05-29T19:16:39.727Z,26.20
2019-05-29T19:19:11.360Z,26.10
2019-05-29T19:21:42.983Z,26.10
2019-05-29T19:24:14.496Z,26.10
2019-05-29T19:26:46.197Z,26.20
2019-05-29T19:29:17.709Z,26.10
2019-05-29T19:31:49.243Z,26.10
2019-05-29T19:34:20.754Z,26.10
2019-05-29T19:36:52.338Z,26.20
2019-05-29T19:39:23.834Z,26.20
2019-05-29T19:41:55.469Z,26.20
2019-05-29T19:44:27.165Z,26.20
2019-05-29T19:46:59.766Z,26.20
2019-05-29T19:49:31.329Z,26.20
2019-05-29T19:52:02.660Z,26.20
2019-05-29T19:54:34.095Z,26.20
2019-05-29T19:57:05.776Z,26.20
2019-05-29T19:59:37.130Z,26.20
2019-05-29T20:02:08.602Z,26.20
2019-05-29T20:04:40.341Z,26.20
2019-05-29T20:07:11.980Z,26.20
2019-05-29T20:09:43.854Z,26.20
2019-05-29T20:12:15.357Z,26.20
2019-05-29T20:14:46.945Z,26.30
2019-05-29T20:17:18.357Z,26.20
2019-05-29T20:19:49.866Z,26.20
2019-05-29T20:22:21.516Z,26.30
2019-05-29T20:24:52.983Z,26.30
2019-05-29T20:27:24.379Z,26.30
2019-05-29T20:29:55.846Z,26.20
2019-05-29T20:32:27.617Z,26.20
2019-05-29T20:34:59.222Z,26.30
2019-05-29T20:37:30.604Z,26.30
2019-05-29T20:40:02.401Z,26.20
2019-05-29T20:42:34.182Z,26.30
2019-05-29T20:45:06.806Z,26.30
2019-05-29T20:47:39.815Z,26.30
2019-05-29T20:50:11.952Z,26.30
2019-05-29T20:52:43.366Z,26.30
2019-05-29T20:55:15.408Z,26.30
2019-05-29T20:57:46.711Z,26.30
2019-05-29T21:00:19.610Z,26.30
2019-05-29T21:02:51.372Z,26.30
2019-05-29T21:05:22.920Z,26.30
2019-05-29T21:07:54.441Z,26.30
2019-05-29T21:10:26.237Z,26.30
2019-05-29T21:12:57.508Z,26.30
2019-05-29T21:15:29.350Z,26.30
2019-05-29T21:18:00.797Z,26.30
2019-05-29T21:20:32.521Z,26.40
2019-05-29T21:23:03.914Z,26.30
2019-05-29T21:25:36.407Z,26.40
2019-05-29T21:28:08.242Z,26.40
2019-05-29T21:30:39.783Z,26.40
2019-05-29T21:33:11.342Z,26.40
2019-05-29T21:35:42.713Z,26.40
2019-05-29T21:38:14.171Z,26.40
2019-05-29T21:40:46.620Z,26.40
2019-05-29T21:43:18.589Z,26.40
2019-05-29T21:45:50.150Z,26.40
2019-05-29T21:48:21.660Z,26.40
2019-05-29T21:50:52.955Z,26.40
2019-05-29T21:53:24.657Z,26.40
2019-05-29T21:55:55.945Z,26.40
2019-05-29T21:58:27.657Z,26.40
2019-05-29T22:00:59.224Z,26.40
2019-05-29T22:03:30.551Z,26.40
2019-05-29T22:06:01.976Z,26.40
2019-05-29T22:08:33.644Z,26.40
2019-05-29T22:11:05.148Z,26.40
2019-05-29T22:13:36.645Z,26.40
2019-05-29T22:16:08.418Z,26.40
2019-05-29T22:18:40.140Z,26.40
2019-05-29T22:21:11.868Z,26.40
2019-05-29T22:23:43.857Z,26.40
2019-05-29T22:26:15.349Z,26.40
2019-05-29T22:28:46.893Z,26.40
2019-05-29T22:31:18.327Z,26.40
2019-05-29T22:33:51.325Z,26.40
2019-05-29T22:36:23.124Z,26.40
2019-05-29T22:38:55.467Z,26.40
2019-05-29T22:41:26.995Z,26.40
2019-05-29T22:43:59.624Z,26.40
2019-05-29T22:46:31.138Z,26.40
2019-05-29T22:49:02.782Z,26.40
2019-05-29T22:51:34.372Z,26.40
2019-05-29T22:54:06.153Z,26.40
2019-05-29T22:56:38.509Z,26.40
2019-05-29T22:59:10.129Z,26.40
2019-05-29T23:01:41.645Z,26.40
2019-05-29T23:04:13.076Z,26.40
2019-05-29T23:06:44.480Z,26.40
2019-05-29T23:09:15.993Z,26.40
2019-05-29T23:11:47.162Z,26.40
2019-05-29T23:14:19.291Z,26.40
2019-05-29T23:16:52.326Z,26.40
2019-05-29T23:19:24.223Z,26.50
2019-05-29T23:21:56.535Z,26.50
2019-05-29T23:24:27.963Z,26.50
2019-05-29T23:26:59.472Z,26.50
2019-05-29T23:29:30.897Z,26.50
2019-05-29T23:32:03.305Z,26.50
2019-05-29T23:34:34.981Z,26.50
2019-05-29T23:37:06.379Z,26.50
2019-05-29T23:39:40.355Z,26.50
2019-05-29T23:42:11.915Z,26.50
2019-05-29T23:44:43.415Z,26.60
2019-05-29T23:47:15.028Z,26.60
2019-05-29T23:49:46.651Z,26.60
2019-05-29T23:52:17.987Z,26.60
2019-05-29T23:54:49.493Z,26.60
2019-05-29T23:57:20.950Z,26.70
